Time;durP1;ratioP1;P1;durP2;ratioP2;P2;SDS_P1;SDS_P2;PMS_P1;PMS_P2;Temp;Humidity;BMP_temperature;BMP_pressure;BME280_temperature;BME280_humidity;BME280_pressure;Samples;Min_cycle;Max_cycle;Signal;HPM_P1;HPM_P2
2023/07/30 00:00:31;;;;;;;5.63;3.60;;;19.80;99.90;;;;;;5073152;28;20439;-70
2023/07/30 00:03:17;;;;;;;4.37;3.60;;;19.90;99.90;;;;;;5079616;28;20567;-70
2023/07/30 00:06:02;;;;;;;7.47;3.60;;;19.80;99.90;;;;;;5061067;28;20572;-70
2023/07/30 00:08:49;;;;;;;4.53;3.40;;;19.80;99.90;;;;;;5057629;28;20439;-70
2023/07/30 00:11:35;;;;;;;7.97;4.13;;;19.80;99.90;;;;;;5065044;28;20441;-70
2023/07/30 00:14:20;;;;;;;5.57;3.10;;;19.70;99.90;;;;;;5065203;28;20439;-70
2023/07/30 00:17:06;;;;;;;5.60;3.37;;;19.60;99.90;;;;;;5064008;28;20446;-70
2023/07/30 00:19:51;;;;;;;5.07;3.00;;;19.60;99.90;;;;;;5058903;28;20419;-71
2023/07/30 00:22:37;;;;;;;5.40;3.07;;;19.50;99.90;;;;;;5071070;28;20517;-70
2023/07/30 00:25:24;;;;;;;3.70;3.10;;;19.30;99.90;;;;;;5063964;28;20433;-70
2023/07/30 00:28:09;;;;;;;5.57;3.33;;;19.30;99.90;;;;;;5061585;28;20415;-70
2023/07/30 00:30:55;;;;;;;4.83;3.07;;;19.30;99.90;;;;;;5061683;28;20442;-70
2023/07/30 00:33:40;;;;;;;3.97;2.93;;;19.20;99.90;;;;;;5058318;28;20498;-69
2023/07/30 00:36:26;;;;;;;3.83;2.80;;;19.30;99.90;;;;;;5062014;28;20468;-71
2023/07/30 00:39:12;;;;;;;3.90;2.50;;;19.30;99.90;;;;;;5066356;28;20479;-70
2023/07/30 00:41:59;;;;;;;13.43;2.80;;;19.30;99.90;;;;;;5061619;28;20436;-70
2023/07/30 00:44:45;;;;;;;6.60;2.53;;;19.40;99.90;;;;;;5064461;28;20541;-72
2023/07/30 00:47:31;;;;;;;4.50;2.70;;;19.30;99.90;;;;;;5060188;28;20421;-70
2023/07/30 00:50:17;;;;;;;4.23;2.63;;;19.30;99.90;;;;;;5059959;28;20506;-71
2023/07/30 00:53:03;;;;;;;4.20;2.67;;;19.30;99.90;;;;;;5062884;28;20470;-72
2023/07/30 00:55:48;;;;;;;7.53;3.10;;;19.20;99.90;;;;;;5065894;28;20787;-71
2023/07/30 00:58:36;;;;;;;3.97;2.80;;;19.20;99.90;;;;;;5061179;28;20899;-72
2023/07/30 01:01:21;;;;;;;3.60;2.83;;;19.20;99.90;;;;;;5060476;28;20453;-72
2023/07/30 01:04:07;;;;;;;7.27;2.50;;;19.20;99.90;;;;;;5057983;28;20500;-72
2023/07/30 01:06:52;;;;;;;3.37;2.83;;;19.30;99.90;;;;;;5058256;28;20772;-72
2023/07/30 01:09:38;;;;;;;3.90;2.97;;;19.40;99.90;;;;;;5062502;28;20515;-72
2023/07/30 01:12:24;;;;;;;11.83;3.20;;;19.40;99.90;;;;;;5061984;28;20439;-72
2023/07/30 01:15:12;;;;;;;6.27;2.77;;;19.40;99.90;;;;;;5072428;28;20493;-72
2023/07/30 01:17:58;;;;;;;7.90;3.57;;;19.40;99.90;;;;;;5069086;28;20436;-72
2023/07/30 01:20:44;;;;;;;4.80;3.17;;;19.40;99.90;;;;;;5070009;28;20584;-72
2023/07/30 01:23:31;;;;;;;5.07;3.13;;;19.40;99.90;;;;;;5071252;28;20418;-72
2023/07/30 01:26:23;;;;;;;3.70;2.87;;;19.50;99.90;;;;;;5066778;28;20593;-72
2023/07/30 01:29:22;;;;;;;4.30;3.17;;;19.50;99.90;;;;;;5065822;28;20432;-72
2023/07/30 01:32:11;;;;;;;7.73;3.30;;;19.40;99.90;;;;;;5063325;28;20434;-72
2023/07/30 01:34:58;;;;;;;4.93;3.43;;;19.40;99.90;;;;;;5067671;28;20443;-72
2023/07/30 01:37:45;;;;;;;4.77;3.17;;;19.40;99.90;;;;;;5057810;28;20485;-72
2023/07/30 01:40:32;;;;;;;3.67;3.13;;;19.40;99.90;;;;;;5053573;28;21057;-72
2023/07/30 01:43:17;;;;;;;8.40;4.27;;;19.50;99.90;;;;;;5061548;28;21151;-72
2023/07/30 01:46:03;;;;;;;4.17;3.50;;;19.50;99.90;;;;;;5058606;28;20972;-72
2023/07/30 01:48:48;;;;;;;4.00;3.07;;;19.50;99.90;;;;;;5059750;28;20417;-73
2023/07/30 01:51:34;;;;;;;4.57;3.40;;;19.60;99.90;;;;;;5062803;28;20529;-72
2023/07/30 01:54:19;;;;;;;6.47;3.50;;;19.60;99.90;;;;;;5064350;28;20469;-71
2023/07/30 01:57:07;;;;;;;6.80;3.23;;;19.60;99.90;;;;;;5062972;28;20444;-71
2023/07/30 01:59:52;;;;;;;4.30;3.33;;;19.60;99.90;;;;;;5063882;28;20447;-71
2023/07/30 02:02:38;;;;;;;6.03;3.30;;;19.60;99.90;;;;;;5066337;28;20438;-70
2023/07/30 02:05:25;;;;;;;6.60;3.40;;;19.60;99.90;;;;;;5064376;28;20924;-71
2023/07/30 02:08:13;;;;;;;3.63;3.23;;;19.60;99.90;;;;;;5066107;28;20437;-71
2023/07/30 02:10:59;;;;;;;5.63;3.17;;;19.60;99.90;;;;;;5064488;28;20960;-70
2023/07/30 02:13:46;;;;;;;11.43;3.70;;;19.60;99.90;;;;;;5059263;28;21089;-71
2023/07/30 02:16:31;;;;;;;5.70;3.10;;;19.50;99.90;;;;;;5066782;28;20412;-72
2023/07/30 02:19:17;;;;;;;7.00;2.67;;;19.50;99.90;;;;;;5074462;28;20446;-70
2023/07/30 02:22:03;;;;;;;7.47;3.40;;;19.50;99.90;;;;;;5063525;28;20495;-71
2023/07/30 02:24:48;;;;;;;5.93;3.60;;;19.50;99.90;;;;;;5062079;28;20461;-71
2023/07/30 02:27:33;;;;;;;4.03;3.07;;;19.50;99.90;;;;;;5062192;28;20418;-71
2023/07/30 02:30:20;;;;;;;4.20;3.53;;;19.40;99.90;;;;;;5059975;28;20527;-70
2023/07/30 02:33:06;;;;;;;12.97;3.60;;;19.50;99.90;;;;;;5062329;28;20478;-71
2023/07/30 02:35:52;;;;;;;6.27;3.10;;;19.50;99.90;;;;;;5063667;28;20449;-71
2023/07/30 02:38:37;;;;;;;4.70;3.20;;;19.50;99.90;;;;;;5063178;28;20448;-71
2023/07/30 02:41:22;;;;;;;5.50;3.40;;;19.50;99.90;;;;;;5064462;28;20912;-72
2023/07/30 02:44:08;;;;;;;3.73;2.87;;;19.50;99.90;;;;;;5067202;28;20487;-71
2023/07/30 02:46:55;;;;;;;4.60;3.23;;;19.50;99.90;;;;;;5069103;28;20575;-71
2023/07/30 02:49:40;;;;;;;10.83;3.50;;;19.50;99.90;;;;;;5065006;28;20501;-71
2023/07/30 02:52:26;;;;;;;3.97;2.80;;;19.50;99.90;;;;;;5060358;28;20462;-70
2023/07/30 02:55:11;;;;;;;6.90;3.70;;;19.50;99.90;;;;;;5064834;28;20904;-72
2023/07/30 02:57:57;;;;;;;4.63;3.20;;;19.50;99.90;;;;;;5062673;28;20517;-72
2023/07/30 03:00:42;;;;;;;6.70;4.10;;;19.40;99.90;;;;;;5063613;28;20436;-71
2023/07/30 03:03:29;;;;;;;5.13;3.37;;;19.40;99.90;;;;;;5062249;28;20436;-71
2023/07/30 03:06:16;;;;;;;5.30;3.77;;;19.30;99.90;;;;;;5068288;28;20996;-71
2023/07/30 03:09:02;;;;;;;4.80;3.50;;;19.30;99.90;;;;;;5068093;28;20461;-72
2023/07/30 03:11:48;;;;;;;4.80;3.60;;;19.30;99.90;;;;;;5066703;28;20466;-71
2023/07/30 03:14:33;;;;;;;6.37;3.97;;;19.30;99.90;;;;;;5069875;28;20527;-72
2023/07/30 03:17:19;;;;;;;4.17;3.77;;;19.20;99.90;;;;;;5071523;28;20417;-72
2023/07/30 03:20:08;;;;;;;6.47;4.20;;;19.20;99.90;;;;;;5071141;28;20601;-72
2023/07/30 03:22:53;;;;;;;4.13;3.60;;;19.20;99.90;;;;;;5057087;28;20447;-72
2023/07/30 03:25:39;;;;;;;7.70;3.33;;;19.20;99.90;;;;;;5064743;28;20435;-72
2023/07/30 03:28:24;;;;;;;9.57;4.07;;;19.10;99.90;;;;;;5072627;28;20779;-72
2023/07/30 03:31:10;;;;;;;9.90;3.80;;;19.10;99.90;;;;;;5078577;28;20462;-72
2023/07/30 03:33:55;;;;;;;5.80;4.10;;;19.00;99.90;;;;;;5070367;28;20987;-72
2023/07/30 03:36:42;;;;;;;8.23;4.57;;;18.90;99.90;;;;;;5066445;28;20575;-71
2023/07/30 03:39:28;;;;;;;10.07;4.00;;;18.90;99.90;;;;;;5066346;28;20514;-71
2023/07/30 03:42:14;;;;;;;5.40;3.60;;;18.90;99.90;;;;;;5061676;28;20418;-70
2023/07/30 03:44:59;;;;;;;5.93;3.83;;;18.90;99.90;;;;;;5060899;28;20439;-72
2023/07/30 03:47:44;;;;;;;7.83;4.13;;;19.00;99.90;;;;;;5061866;28;20416;-72
2023/07/30 03:50:30;;;;;;;4.90;3.77;;;19.00;99.90;;;;;;5061954;28;21010;-72
2023/07/30 03:53:17;;;;;;;10.73;4.03;;;19.00;99.90;;;;;;5061491;28;20981;-72
2023/07/30 03:56:02;;;;;;;4.70;3.80;;;19.00;99.90;;;;;;5062477;28;20445;-72
2023/07/30 03:58:48;;;;;;;4.47;4.07;;;19.00;99.90;;;;;;5062797;28;20805;-72
2023/07/30 04:01:33;;;;;;;5.93;3.70;;;19.00;99.90;;;;;;5062618;28;20454;-72
2023/07/30 04:04:19;;;;;;;5.93;4.07;;;19.00;99.90;;;;;;5055017;28;20416;-72
2023/07/30 04:07:04;;;;;;;8.13;4.00;;;19.00;99.90;;;;;;5060641;28;20415;-72
2023/07/30 04:09:51;;;;;;;8.10;4.10;;;19.00;99.90;;;;;;5060561;28;20418;-71
2023/07/30 04:12:37;;;;;;;4.93;4.43;;;19.00;99.90;;;;;;5060804;28;20418;-72
2023/07/30 04:15:22;;;;;;;4.67;4.23;;;19.00;99.90;;;;;;5059859;28;20841;-71
2023/07/30 04:18:08;;;;;;;5.70;3.80;;;19.00;99.90;;;;;;5059787;28;20464;-71
2023/07/30 04:20:55;;;;;;;4.83;3.50;;;19.00;99.90;;;;;;5063295;28;20987;-72
2023/07/30 04:23:41;;;;;;;8.23;4.10;;;19.00;99.90;;;;;;5060792;28;20441;-71
2023/07/30 04:26:27;;;;;;;4.20;3.80;;;19.00;99.90;;;;;;5064000;28;20451;-72
2023/07/30 04:29:13;;;;;;;6.07;4.03;;;19.00;99.90;;;;;;5066893;28;20466;-70
2023/07/30 04:31:59;;;;;;;8.50;4.70;;;19.00;99.90;;;;;;5060529;28;20971;-71
2023/07/30 04:34:44;;;;;;;5.40;4.20;;;19.00;99.90;;;;;;5059866;28;20450;-72
2023/07/30 04:37:30;;;;;;;8.13;3.97;;;19.10;99.90;;;;;;5061697;28;20540;-72
2023/07/30 04:40:16;;;;;;;6.13;4.20;;;19.10;99.90;;;;;;5058985;28;20459;-74
2023/07/30 04:43:03;;;;;;;5.47;4.40;;;19.10;99.90;;;;;;5057240;28;20501;-72
2023/07/30 04:45:48;;;;;;;4.80;4.30;;;19.10;99.90;;;;;;5060284;28;20419;-72
2023/07/30 04:48:34;;;;;;;6.70;3.87;;;19.20;99.90;;;;;;5058714;28;20515;-72
2023/07/30 04:51:19;;;;;;;6.50;4.73;;;19.30;99.90;;;;;;5063794;28;20471;-72
2023/07/30 04:54:05;;;;;;;7.80;4.90;;;19.30;99.90;;;;;;5061701;28;20466;-72
2023/07/30 04:56:50;;;;;;;5.30;4.17;;;19.30;99.90;;;;;;5062362;28;20419;-72
2023/07/30 04:59:37;;;;;;;9.20;4.50;;;19.30;99.90;;;;;;5060981;28;20478;-72
2023/07/30 05:02:23;;;;;;;5.50;4.37;;;19.30;99.90;;;;;;5061019;28;20803;-72
2023/07/30 05:05:09;;;;;;;5.20;4.20;;;19.30;99.90;;;;;;5072502;28;20435;-72
2023/07/30 05:07:54;;;;;;;4.27;3.57;;;19.30;99.90;;;;;;5059446;28;20454;-72
2023/07/30 05:10:40;;;;;;;6.10;3.60;;;19.30;99.90;;;;;;5064848;28;21069;-72
2023/07/30 05:13:25;;;;;;;11.73;3.80;;;19.40;99.90;;;;;;5062244;28;20436;-71
2023/07/30 05:16:12;;;;;;;4.60;3.77;;;19.40;99.90;;;;;;5059743;28;20469;-72
2023/07/30 05:18:57;;;;;;;6.50;4.20;;;19.40;99.90;;;;;;5075192;28;20841;-72
2023/07/30 05:21:43;;;;;;;9.23;4.50;;;19.40;99.90;;;;;;5065794;28;20495;-71
2023/07/30 05:24:29;;;;;;;9.20;4.00;;;19.50;99.90;;;;;;5063789;28;20461;-72
2023/07/30 05:27:14;;;;;;;4.20;3.63;;;19.50;99.90;;;;;;5062881;28;20452;-73
2023/07/30 05:30:00;;;;;;;3.77;3.47;;;19.60;99.90;;;;;;5066016;28;20415;-72
2023/07/30 05:32:46;;;;;;;4.63;3.27;;;19.60;99.90;;;;;;5061830;28;20435;-72
2023/07/30 05:35:32;;;;;;;8.53;4.53;;;19.60;99.90;;;;;;5072174;28;20476;-72
2023/07/30 05:38:17;;;;;;;10.73;3.57;;;19.60;99.90;;;;;;5061025;28;20534;-72
2023/07/30 05:41:03;;;;;;;20.27;3.67;;;19.60;99.90;;;;;;5061435;28;20436;-71
2023/07/30 05:43:49;;;;;;;3.97;3.40;;;19.60;99.90;;;;;;5065041;28;20955;-73
2023/07/30 05:46:34;;;;;;;3.60;3.30;;;19.70;99.90;;;;;;5065548;28;20489;-72
2023/07/30 05:49:21;;;;;;;4.10;3.20;;;19.80;99.90;;;;;;5058403;28;20444;-70
2023/07/30 05:52:06;;;;;;;5.60;3.60;;;19.80;99.90;;;;;;5060893;28;20495;-72
2023/07/30 05:54:51;;;;;;;11.53;3.00;;;19.80;99.90;;;;;;5063497;28;20470;-72
2023/07/30 05:57:37;;;;;;;7.90;3.20;;;19.90;99.90;;;;;;5057652;28;20442;-72
2023/07/30 06:00:24;;;;;;;3.93;3.10;;;19.90;99.90;;;;;;5063222;28;20541;-72
2023/07/30 06:03:09;;;;;;;4.10;3.00;;;20.00;99.90;;;;;;5062691;28;20430;-72
2023/07/30 06:05:56;;;;;;;10.97;3.40;;;20.00;99.90;;;;;;5063409;28;20573;-72
2023/07/30 06:08:41;;;;;;;5.97;2.50;;;20.00;99.90;;;;;;5059708;28;20461;-72
2023/07/30 06:11:27;;;;;;;3.23;2.80;;;19.90;99.90;;;;;;5063977;28;20469;-72
2023/07/30 06:14:13;;;;;;;4.47;2.90;;;20.00;99.90;;;;;;5062130;28;20468;-72
2023/07/30 06:16:58;;;;;;;5.03;2.77;;;20.10;99.90;;;;;;5059360;28;20455;-73
2023/07/30 06:19:44;;;;;;;4.80;2.87;;;20.10;99.90;;;;;;5059172;28;20773;-72
2023/07/30 06:22:31;;;;;;;7.40;2.80;;;20.20;99.90;;;;;;5061600;28;20549;-71
2023/07/30 06:25:17;;;;;;;8.53;3.80;;;20.20;99.90;;;;;;5058061;28;21062;-72
2023/07/30 06:28:03;;;;;;;4.57;3.20;;;20.30;99.90;;;;;;5057145;28;20657;-72
2023/07/30 06:30:48;;;;;;;6.10;3.87;;;20.30;99.90;;;;;;5058845;28;20473;-72
2023/07/30 06:33:34;;;;;;;3.70;2.70;;;20.30;99.90;;;;;;5065987;28;20516;-72
2023/07/30 06:36:19;;;;;;;4.57;2.73;;;20.30;99.90;;;;;;5062161;28;20475;-72
2023/07/30 06:39:06;;;;;;;5.30;4.10;;;20.20;99.90;;;;;;5060121;28;21005;-70
2023/07/30 06:41:51;;;;;;;4.37;3.20;;;20.30;99.90;;;;;;5067832;28;20462;-72
2023/07/30 06:44:37;;;;;;;3.40;2.43;;;20.40;99.90;;;;;;5063456;28;20441;-72
2023/07/30 06:47:22;;;;;;;4.03;3.37;;;20.50;99.90;;;;;;5058198;28;21051;-72
2023/07/30 06:50:09;;;;;;;5.97;3.80;;;20.50;99.90;;;;;;5062364;28;20502;-72
2023/07/30 06:52:54;;;;;;;3.63;3.07;;;20.30;99.90;;;;;;5055964;28;20461;-71
2023/07/30 06:55:41;;;;;;;4.00;3.40;;;20.20;99.90;;;;;;5057743;28;20484;-71
2023/07/30 06:58:26;;;;;;;4.87;4.33;;;20.30;99.90;;;;;;5059676;28;20435;-72
2023/07/30 07:01:12;;;;;;;6.60;3.30;;;20.20;99.90;;;;;;5063232;28;20479;-72
2023/07/30 07:03:57;;;;;;;3.87;3.37;;;20.20;99.90;;;;;;5065446;28;20428;-71
2023/07/30 07:06:43;;;;;;;6.70;3.77;;;20.20;99.90;;;;;;5063839;28;20434;-71
2023/07/30 07:09:28;;;;;;;4.43;3.17;;;20.30;99.90;;;;;;5063288;28;20446;-72
2023/07/30 07:12:15;;;;;;;3.20;2.83;;;20.40;99.90;;;;;;5064377;28;20486;-72
2023/07/30 07:15:01;;;;;;;5.10;3.27;;;20.40;99.90;;;;;;5063304;28;20561;-71
2023/07/30 07:17:46;;;;;;;9.13;3.70;;;20.30;99.90;;;;;;5064809;28;20453;-71
2023/07/30 07:20:32;;;;;;;4.40;3.53;;;20.30;99.90;;;;;;5060337;28;20463;-72
2023/07/30 07:23:17;;;;;;;5.37;3.77;;;20.30;99.90;;;;;;5065503;28;20512;-72
2023/07/30 07:26:03;;;;;;;3.20;2.90;;;20.40;99.90;;;;;;5065536;28;20602;-71
2023/07/30 07:28:50;;;;;;;4.30;3.50;;;20.30;99.90;;;;;;5064103;28;20925;-71
2023/07/30 07:31:35;;;;;;;8.20;3.93;;;20.40;99.90;;;;;;5062497;28;20469;-72
2023/07/30 07:34:21;;;;;;;4.30;3.50;;;20.30;99.90;;;;;;5067080;28;20925;-72
2023/07/30 07:37:07;;;;;;;5.77;4.40;;;20.10;99.90;;;;;;5058073;28;20798;-71
2023/07/30 07:39:52;;;;;;;5.67;4.90;;;20.10;99.90;;;;;;5064469;28;20415;-71
2023/07/30 07:42:38;;;;;;;6.50;5.47;;;20.20;99.90;;;;;;5062960;28;21091;-71
2023/07/30 07:45:25;;;;;;;5.30;4.80;;;20.20;99.90;;;;;;5057509;28;20431;-71
2023/07/30 07:48:11;;;;;;;6.60;5.23;;;20.30;99.90;;;;;;5062330;28;20443;-72
2023/07/30 07:50:56;;;;;;;6.20;5.07;;;20.20;99.90;;;;;;5062568;28;20474;-72
2023/07/30 07:53:42;;;;;;;9.87;4.90;;;20.20;99.90;;;;;;5063135;28;21041;-71
2023/07/30 07:56:27;;;;;;;7.93;5.83;;;20.20;99.90;;;;;;5057844;28;20897;-71
2023/07/30 07:59:13;;;;;;;6.13;5.53;;;20.10;99.90;;;;;;5062826;28;20454;-71
2023/07/30 08:02:00;;;;;;;6.43;5.00;;;20.10;99.90;;;;;;5061381;28;21044;-71
2023/07/30 08:04:45;;;;;;;6.77;5.23;;;20.10;99.90;;;;;;5059245;28;20461;-71
2023/07/30 08:07:31;;;;;;;5.10;4.60;;;20.10;99.90;;;;;;5058302;28;20450;-71
2023/07/30 08:10:17;;;;;;;9.20;4.43;;;20.00;99.90;;;;;;5057036;28;20579;-71
2023/07/30 08:13:02;;;;;;;5.60;5.10;;;20.00;99.90;;;;;;5058198;28;20436;-71
2023/07/30 08:15:48;;;;;;;12.20;5.67;;;20.00;99.90;;;;;;5055905;28;20470;-71
2023/07/30 08:18:35;;;;;;;5.93;5.10;;;20.00;99.90;;;;;;5062017;28;20451;-71
2023/07/30 08:21:20;;;;;;;11.00;5.43;;;20.10;99.90;;;;;;5060165;28;20988;-71
2023/07/30 08:24:06;;;;;;;6.27;5.67;;;20.30;99.90;;;;;;5059938;28;20826;-71
2023/07/30 08:26:51;;;;;;;5.90;5.30;;;20.30;99.90;;;;;;5052025;28;20497;-72
2023/07/30 08:29:37;;;;;;;7.07;5.83;;;20.40;99.90;;;;;;5059028;28;20621;-71
2023/07/30 08:32:22;;;;;;;6.27;5.07;;;20.50;99.90;;;;;;5057620;28;20498;-71
2023/07/30 08:35:10;;;;;;;6.23;5.53;;;20.50;99.90;;;;;;5069813;28;20474;-72
2023/07/30 08:37:56;;;;;;;5.00;4.50;;;20.60;99.90;;;;;;5057117;28;21403;-72
2023/07/30 08:40:41;;;;;;;5.90;5.30;;;20.60;99.90;;;;;;5060973;28;22008;-71
2023/07/30 08:43:27;;;;;;;7.43;5.37;;;20.60;99.90;;;;;;5060369;28;20915;-71
2023/07/30 08:46:13;;;;;;;7.50;5.20;;;20.60;99.90;;;;;;5062956;28;22433;-72
2023/07/30 08:48:58;;;;;;;9.27;4.90;;;20.60;99.90;;;;;;5065140;28;20494;-71
2023/07/30 08:51:46;;;;;;;9.10;5.00;;;20.60;99.90;;;;;;5058230;28;20478;-71
2023/07/30 08:54:32;;;;;;;5.20;4.70;;;20.60;99.90;;;;;;5057880;28;20453;-72
2023/07/30 08:57:19;;;;;;;5.10;4.60;;;20.60;99.90;;;;;;5064187;28;20447;-71
2023/07/30 09:00:08;;;;;;;5.17;4.23;;;20.60;99.90;;;;;;5064343;28;20443;-72
2023/07/30 09:02:55;;;;;;;4.17;3.70;;;20.70;99.90;;;;;;5064449;28;20420;-71
2023/07/30 09:05:41;;;;;;;4.40;3.20;;;20.70;99.90;;;;;;5071789;28;20580;-71
2023/07/30 09:08:27;;;;;;;4.30;3.50;;;20.80;99.90;;;;;;5058961;28;20460;-72
2023/07/30 09:11:13;;;;;;;6.53;2.83;;;20.90;99.90;;;;;;5067375;28;20541;-74
2023/07/30 09:14:02;;;;;;;9.57;2.73;;;21.00;99.90;;;;;;5057071;28;20453;-71
2023/07/30 09:16:47;;;;;;;4.10;2.90;;;21.30;99.90;;;;;;5059264;28;20826;-71
2023/07/30 09:19:36;;;;;;;3.10;2.70;;;21.40;99.90;;;;;;5058316;28;20412;-70
2023/07/30 09:22:25;;;;;;;3.50;2.33;;;21.50;99.90;;;;;;5070763;28;21021;-70
2023/07/30 09:25:16;;;;;;;4.40;2.27;;;21.50;99.90;;;;;;5078555;28;20424;-71
2023/07/30 09:28:01;;;;;;;4.17;2.50;;;21.60;99.90;;;;;;5075231;28;20449;-70
2023/07/30 09:30:49;;;;;;;4.10;1.90;;;21.60;99.90;;;;;;5075849;28;20542;-70
2023/07/30 09:33:35;;;;;;;4.20;2.40;;;21.70;99.90;;;;;;5066545;28;20425;-70
2023/07/30 09:36:21;;;;;;;4.70;2.30;;;21.70;99.90;;;;;;5077260;28;20563;-71
2023/07/30 09:39:15;;;;;;;4.00;2.90;;;21.80;99.90;;;;;;5068926;28;20442;-70
2023/07/30 09:42:02;;;;;;;3.57;1.93;;;21.80;99.90;;;;;;5063015;28;20934;-70
2023/07/30 09:44:48;;;;;;;8.43;2.03;;;21.80;99.90;;;;;;5069746;28;20507;-71
2023/07/30 09:47:35;;;;;;;3.80;2.30;;;21.80;99.90;;;;;;5071655;28;20913;-70
2023/07/30 09:50:20;;;;;;;6.40;2.63;;;21.80;99.90;;;;;;5068153;28;20456;-71
2023/07/30 09:53:06;;;;;;;4.30;2.30;;;21.80;99.90;;;;;;5061804;28;20451;-71
2023/07/30 09:55:51;;;;;;;5.30;2.70;;;21.90;99.90;;;;;;5059644;28;20474;-71
2023/07/30 09:58:38;;;;;;;3.33;2.00;;;22.10;99.90;;;;;;5057267;28;20999;-71
2023/07/30 10:01:26;;;;;;;5.53;2.60;;;22.10;99.90;;;;;;5063076;28;20457;-71
2023/07/30 10:04:12;;;;;;;3.70;2.63;;;21.90;99.90;;;;;;5062204;28;20520;-70
2023/07/30 10:07:04;;;;;;;5.70;2.80;;;21.60;99.90;;;;;;5058034;28;20435;-73
2023/07/30 10:09:53;;;;;;;11.17;2.57;;;21.40;99.90;;;;;;5062097;28;20434;-71
2023/07/30 10:12:40;;;;;;;3.90;2.17;;;21.30;99.90;;;;;;5055077;28;20554;-71
2023/07/30 10:15:27;;;;;;;3.97;1.83;;;21.00;99.90;;;;;;5064728;28;20993;-71
2023/07/30 10:18:13;;;;;;;2.83;1.30;;;21.00;99.90;;;;;;5064936;28;20521;-71
2023/07/30 10:20:58;;;;;;;2.27;1.27;;;21.00;99.90;;;;;;5061892;28;20467;-71
2023/07/30 10:23:47;;;;;;;4.20;1.60;;;21.00;99.90;;;;;;5064190;28;20418;-71
2023/07/30 10:26:33;;;;;;;7.30;1.60;;;21.20;99.90;;;;;;5066766;28;20450;-72
2023/07/30 10:29:20;;;;;;;1.70;1.00;;;21.40;99.90;;;;;;5102506;22;20633;-92
2023/07/30 10:32:08;;;;;;;7.53;1.13;;;21.30;99.90;;;;;;5083532;22;20515;-74
2023/07/30 10:34:56;;;;;;;3.00;1.33;;;21.30;99.90;;;;;;5063833;28;20472;-74
2023/07/30 10:37:47;;;;;;;4.70;1.07;;;21.30;99.90;;;;;;5067481;28;21551;-76
2023/07/30 10:40:32;;;;;;;3.30;1.13;;;21.30;99.90;;;;;;5050447;28;20474;-76
2023/07/30 10:43:18;;;;;;;2.70;1.20;;;21.10;99.90;;;;;;5034101;28;20423;-75
2023/07/30 10:46:04;;;;;;;2.83;1.23;;;21.10;99.90;;;;;;5043186;28;20414;-76
2023/07/30 10:48:50;;;;;;;3.73;1.37;;;21.10;99.90;;;;;;5038054;28;20838;-75
2023/07/30 10:51:36;;;;;;;3.80;1.50;;;21.20;99.90;;;;;;5039557;28;20424;-75
2023/07/30 10:54:22;;;;;;;2.10;1.20;;;21.20;99.90;;;;;;5044392;28;20491;-75
2023/07/30 10:57:08;;;;;;;6.93;1.50;;;21.20;99.90;;;;;;5042487;28;21023;-74
2023/07/30 10:59:56;;;;;;;3.00;1.50;;;21.10;99.90;;;;;;5036437;28;20446;-75
2023/07/30 11:02:41;;;;;;;6.90;1.20;;;21.10;99.90;;;;;;5043107;28;20794;-75
2023/07/30 11:05:29;;;;;;;3.53;1.20;;;21.10;99.90;;;;;;5049756;28;20518;-75
2023/07/30 11:08:15;;;;;;;2.33;1.27;;;21.20;99.90;;;;;;5041564;28;20447;-75
2023/07/30 11:11:00;;;;;;;3.30;1.40;;;21.50;99.90;;;;;;5037768;28;20478;-75
2023/07/30 11:13:47;;;;;;;3.23;1.53;;;21.80;99.90;;;;;;5043300;28;20443;-75
2023/07/30 11:16:33;;;;;;;3.73;1.33;;;22.10;99.90;;;;;;5050560;28;20449;-75
2023/07/30 11:19:19;;;;;;;4.97;2.53;;;22.10;99.90;;;;;;5049949;28;20449;-75
2023/07/30 11:22:09;;;;;;;3.43;1.60;;;22.10;99.90;;;;;;5057312;28;20478;-74
2023/07/30 11:24:54;;;;;;;3.53;1.53;;;22.20;99.90;;;;;;5055567;28;20571;-74
2023/07/30 11:27:46;;;;;;;3.60;1.40;;;22.20;98.40;;;;;;5058972;28;20452;-74
2023/07/30 11:30:33;;;;;;;5.00;1.80;;;22.30;95.00;;;;;;5053541;28;21554;-74
2023/07/30 11:33:18;;;;;;;6.83;1.50;;;22.40;96.10;;;;;;5053806;28;20957;-74
2023/07/30 11:36:04;;;;;;;2.77;1.30;;;22.30;70.50;;;;;;5048041;28;20606;-74
2023/07/30 11:38:53;;;;;;;7.90;1.40;;;22.30;78.50;;;;;;5036524;28;20525;-74
2023/07/30 11:41:39;;;;;;;17.33;6.73;;;22.30;74.20;;;;;;5047760;28;20948;-74
2023/07/30 11:44:31;;;;;;;4.70;2.17;;;22.30;77.00;;;;;;5045028;28;20452;-74
2023/07/30 11:47:22;;;;;;;3.07;1.47;;;22.10;76.30;;;;;;5053251;28;20487;-74
2023/07/30 11:50:08;;;;;;;4.47;1.60;;;22.00;78.60;;;;;;5049252;28;20441;-75
2023/07/30 11:52:55;;;;;;;4.33;1.70;;;21.70;75.90;;;;;;5056221;28;20430;-75
2023/07/30 11:55:43;;;;;;;4.73;1.67;;;21.60;81.60;;;;;;5055546;28;20453;-75
2023/07/30 11:58:29;;;;;;;4.93;1.67;;;21.40;85.00;;;;;;5043922;28;20840;-75
2023/07/30 12:01:16;;;;;;;3.70;1.40;;;21.50;94.90;;;;;;5046445;28;20476;-75
2023/07/30 12:04:04;;;;;;;3.50;1.67;;;21.40;77.40;;;;;;5037718;28;20450;-75
2023/07/30 12:06:51;;;;;;;6.33;1.80;;;21.50;89.00;;;;;;5047407;28;20776;-75
2023/07/30 12:09:38;;;;;;;4.87;1.70;;;21.60;80.10;;;;;;5039707;28;20475;-75
2023/07/30 12:12:27;;;;;;;2.90;1.40;;;21.70;71.70;;;;;;5039182;28;20539;-75
2023/07/30 12:15:13;;;;;;;3.30;1.80;;;21.80;62.10;;;;;;5035458;28;20747;-75
2023/07/30 12:17:59;;;;;;;4.20;1.70;;;22.00;64.80;;;;;;5042303;28;21129;-74
2023/07/30 12:20:45;;;;;;;4.37;1.80;;;22.20;66.60;;;;;;5042980;28;20556;-75
2023/07/30 12:23:30;;;;;;;4.20;1.60;;;22.00;54.30;;;;;;5046609;28;20452;-75
2023/07/30 12:26:16;;;;;;;4.93;1.93;;;22.00;79.80;;;;;;5041338;28;20452;-75
2023/07/30 12:29:03;;;;;;;5.30;1.67;;;22.10;65.70;;;;;;5046338;28;20458;-75
2023/07/30 12:31:51;;;;;;;3.43;1.63;;;22.00;63.50;;;;;;5039172;28;20469;-74
2023/07/30 12:34:37;;;;;;;6.57;1.93;;;22.00;66.70;;;;;;5051316;28;20426;-75
2023/07/30 12:37:22;;;;;;;4.00;1.40;;;22.00;61.50;;;;;;5057988;28;20481;-75
2023/07/30 12:40:09;;;;;;;4.53;2.00;;;22.30;52.40;;;;;;5041532;28;20503;-75
2023/07/30 12:42:54;;;;;;;3.80;1.50;;;22.60;46.50;;;;;;5032467;28;20456;-75
2023/07/30 12:45:41;;;;;;;3.93;1.53;;;22.60;37.70;;;;;;5034755;28;20454;-75
2023/07/30 12:48:27;;;;;;;5.57;1.50;;;22.70;38.60;;;;;;5042035;28;20720;-75
2023/07/30 12:51:12;;;;;;;4.10;1.77;;;22.60;33.30;;;;;;5044609;28;20488;-75
2023/07/30 12:53:58;;;;;;;7.87;2.97;;;22.70;38.10;;;;;;5038260;28;20456;-74
2023/07/30 12:56:43;;;;;;;6.23;2.57;;;22.50;31.70;;;;;;5049329;28;20832;-75
2023/07/30 12:59:30;;;;;;;7.77;2.63;;;22.50;35.10;;;;;;5049089;28;20475;-75
2023/07/30 13:02:17;;;;;;;3.70;1.90;;;22.30;32.50;;;;;;5046914;28;20490;-75
2023/07/30 13:05:03;;;;;;;6.07;1.90;;;22.10;32.90;;;;;;5038250;28;20871;-75
2023/07/30 13:07:48;;;;;;;4.13;1.33;;;22.30;42.00;;;;;;5027404;28;20426;-75
2023/07/30 13:10:35;;;;;;;6.60;1.50;;;22.60;41.40;;;;;;5034499;28;21877;-75
2023/07/30 13:13:20;;;;;;;4.40;1.57;;;22.80;37.60;;;;;;5043074;28;20494;-75
2023/07/30 13:16:05;;;;;;;4.87;1.30;;;23.00;35.90;;;;;;5043384;28;20506;-75
2023/07/30 13:18:56;;;;;;;4.17;1.73;;;22.90;34.60;;;;;;5042306;28;20481;-75
2023/07/30 13:21:42;;;;;;;4.87;2.30;;;22.90;32.70;;;;;;5048641;28;20993;-75
2023/07/30 13:24:29;;;;;;;5.50;1.70;;;22.80;30.40;;;;;;5054730;28;20434;-74
2023/07/30 13:27:14;;;;;;;4.03;2.00;;;22.60;31.20;;;;;;5036153;28;20451;-74
2023/07/30 13:30:00;;;;;;;5.03;1.67;;;22.30;31.60;;;;;;5040600;28;20979;-74
2023/07/30 13:32:45;;;;;;;7.47;1.83;;;22.00;32.00;;;;;;5041004;28;20799;-74
2023/07/30 13:35:32;;;;;;;6.20;1.80;;;21.90;34.40;;;;;;5038007;28;20466;-74
2023/07/30 13:38:21;;;;;;;5.07;1.63;;;21.60;33.60;;;;;;5036063;28;20803;-72
2023/07/30 13:41:06;;;;;;;4.43;1.83;;;21.50;35.90;;;;;;5039326;28;20484;-74
2023/07/30 13:43:52;;;;;;;5.17;2.17;;;21.50;34.30;;;;;;5036300;28;20443;-74
2023/07/30 13:46:37;;;;;;;8.80;2.00;;;21.50;34.50;;;;;;5042805;28;20467;-75
2023/07/30 13:49:23;;;;;;;6.90;2.00;;;21.70;35.00;;;;;;5041770;28;20502;-74
2023/07/30 13:52:10;;;;;;;7.20;1.73;;;21.80;35.90;;;;;;5039197;28;20520;-74
2023/07/30 13:54:55;;;;;;;4.47;1.60;;;21.90;38.90;;;;;;5043871;28;20972;-75
2023/07/30 13:57:41;;;;;;;3.77;1.47;;;21.80;35.40;;;;;;5042100;28;21004;-74
2023/07/30 14:00:26;;;;;;;5.33;1.87;;;21.70;35.10;;;;;;5043080;28;20576;-74
2023/07/30 14:03:13;;;;;;;5.03;1.97;;;21.50;35.00;;;;;;5041410;28;20495;-75
2023/07/30 14:05:58;;;;;;;5.97;1.90;;;21.60;38.00;;;;;;5041327;28;20441;-74
2023/07/30 14:08:45;;;;;;;8.90;1.50;;;21.60;41.30;;;;;;5039862;28;20448;-74
2023/07/30 14:11:31;;;;;;;5.90;1.80;;;21.50;33.10;;;;;;5040843;28;20428;-74
2023/07/30 14:14:16;;;;;;;5.57;1.90;;;21.50;38.70;;;;;;5036076;28;20415;-74
2023/07/30 14:17:06;;;;;;;5.33;2.77;;;21.50;35.60;;;;;;5037548;28;20460;-74
2023/07/30 14:19:51;;;;;;;5.83;2.33;;;21.60;36.00;;;;;;5043080;28;20997;-74
2023/07/30 14:22:37;;;;;;;4.83;1.60;;;21.80;41.50;;;;;;5040585;28;20537;-74